Time;durP1;ratioP1;P1;durP2;ratioP2;P2;SDS_P1;SDS_P2;PMS_P1;PMS_P2;Temp;Humidity;BMP_temperature;BMP_pressure;BME280_temperature;BME280_humidity;BME280_pressure;Samples;Min_cycle;Max_cycle;Signal;HPM_P1;HPM_P2
2021/08/31 00:02:00;;;;;;;;;;;;;;;24.57;62.67;100749.88;5033806;28;1347;-47
2021/08/31 00:04:27;;;;;;;;;;;;;;;24.61;62.46;100756.63;5034115;28;1166;-47
2021/08/31 00:06:53;;;;;;;;;;;;;;;24.58;62.46;100755.09;5033765;28;943;-48
2021/08/31 00:09:21;;;;;;;;;;;;;;;24.59;63.27;100764.94;5034039;28;1906;-47
2021/08/31 00:11:47;;;;;;;;;;;;;;;24.58;62.18;100763.22;5033772;28;1130;-47
2021/08/31 00:14:14;;;;;;;;;;;;;;;24.57;62.33;100756.16;5033745;28;1147;-47
2021/08/31 00:16:41;;;;;;;;;;;;;;;24.57;62.96;100766.09;5033758;28;1084;-47
2021/08/31 00:19:08;;;;;;;;;;;;;;;24.56;62.69;100764.41;5033624;28;1091;-47
2021/08/31 00:21:35;;;;;;;;;;;;;;;24.51;62.74;100750.56;5033955;28;1088;-47
2021/08/31 00:24:01;;;;;;;;;;;;;;;24.54;63.16;100755.63;5033955;28;1078;-47
2021/08/31 00:26:28;;;;;;;;;;;;;;;24.54;62.72;100761.88;5033581;28;1163;-47
2021/08/31 00:28:54;;;;;;;;;;;;;;;24.55;62.98;100755.47;5033876;28;1093;-47
2021/08/31 00:31:21;;;;;;;;;;;;;;;24.55;62.61;100763.59;5033635;28;1979;-47
2021/08/31 00:33:47;;;;;;;;;;;;;;;24.52;62.58;100760.38;5033504;28;1092;-47
2021/08/31 00:36:15;;;;;;;;;;;;;;;24.53;62.16;100760.22;5033834;28;987;-47
2021/08/31 00:38:42;;;;;;;;;;;;;;;24.52;62.17;100757.69;5033689;28;1329;-47
2021/08/31 00:41:08;;;;;;;;;;;;;;;24.53;62.24;100764.75;5033449;28;1134;-47
2021/08/31 00:43:42;;;;;;;;;;;;;;;24.54;62.35;100759.19;5033307;28;1209;-47
2021/08/31 00:46:09;;;;;;;;;;;;;;;24.56;63.10;100759.84;5033891;28;1079;-47
2021/08/31 00:48:35;;;;;;;;;;;;;;;24.51;62.74;100759.53;5033565;28;1253;-47
2021/08/31 00:51:02;;;;;;;;;;;;;;;24.56;63.06;100773.38;5033563;28;1977;-47
2021/08/31 00:53:30;;;;;;;;;;;;;;;24.54;62.27;100767.28;5033586;28;1050;-47
2021/08/31 00:55:56;;;;;;;;;;;;;;;24.58;62.92;100776.75;5033654;28;1073;-47
2021/08/31 00:58:22;;;;;;;;;;;;;;;24.52;62.87;100761.22;5033577;28;1187;-47
2021/08/31 01:00:49;;;;;;;;;;;;;;;24.55;62.89;100779.81;5033099;28;1111;-48
2021/08/31 01:03:15;;;;;;;;;;;;;;;24.52;62.67;100769.31;5033122;28;1388;-47
2021/08/31 01:05:42;;;;;;;;;;;;;;;24.51;62.47;100774.91;5033748;28;1077;-47
2021/08/31 01:08:09;;;;;;;;;;;;;;;24.52;62.57;100780.13;5033381;28;1073;-47
2021/08/31 01:10:37;;;;;;;;;;;;;;;24.52;62.32;100774.72;5033089;28;1902;-47
2021/08/31 01:13:03;;;;;;;;;;;;;;;24.50;62.63;100771.34;5033402;28;1048;-47
2021/08/31 01:15:31;;;;;;;;;;;;;;;24.55;62.24;100785.22;5033368;28;1081;-47
2021/08/31 01:17:57;;;;;;;;;;;;;;;24.50;62.34;100779.47;5033360;28;1093;-47
2021/08/31 01:20:23;;;;;;;;;;;;;;;24.54;62.52;100788.91;5033319;28;1077;-48
2021/08/31 01:22:50;;;;;;;;;;;;;;;24.55;62.55;100796.03;5033515;28;1044;-47
2021/08/31 01:25:18;;;;;;;;;;;;;;;24.54;62.99;100782.69;5033279;28;1063;-47
2021/08/31 01:27:44;;;;;;;;;;;;;;;24.50;62.93;100787.56;5032977;28;1116;-47
2021/08/31 01:30:11;;;;;;;;;;;;;;;24.53;62.62;100792.66;5033219;28;1902;-47
2021/08/31 01:32:38;;;;;;;;;;;;;;;24.50;62.88;100790.28;5032853;28;1111;-47
2021/08/31 01:35:05;;;;;;;;;;;;;;;24.49;63.28;100791.28;5032934;28;1083;-47
2021/08/31 01:37:31;;;;;;;;;;;;;;;24.49;62.61;100780.47;5032892;28;1068;-47
2021/08/31 01:39:58;;;;;;;;;;;;;;;24.51;62.43;100794.69;5033174;28;1008;-47
2021/08/31 01:42:25;;;;;;;;;;;;;;;24.52;62.47;100785.53;5033450;28;995;-47
2021/08/31 01:44:52;;;;;;;;;;;;;;;24.48;62.49;100789.56;5036756;28;994;-47
2021/08/31 01:47:18;;;;;;;;;;;;;;;24.54;62.97;100805.13;5036775;28;996;-47
2021/08/31 01:49:45;;;;;;;;;;;;;;;24.54;62.88;100798.91;5036662;28;1902;-47
2021/08/31 01:52:11;;;;;;;;;;;;;;;24.48;62.46;100794.97;5036866;28;1950;-47
2021/08/31 01:54:38;;;;;;;;;;;;;;;24.48;62.05;100781.47;5036319;28;1096;-47
2021/08/31 01:57:04;;;;;;;;;;;;;;;24.50;62.95;100806.50;5036226;28;1127;-47
2021/08/31 01:59:32;;;;;;;;;;;;;;;24.54;62.69;100801.59;5036229;28;1104;-47
2021/08/31 02:01:59;;;;;;;;;;;;;;;24.52;62.03;100803.63;5145650;22;3785;-46
2021/08/31 02:04:25;;;;;;;;;;;;;;;24.53;62.98;100813.41;5016335;28;1150;-47
2021/08/31 02:06:52;;;;;;;;;;;;;;;24.48;62.79;100792.28;5016674;28;959;-47
2021/08/31 02:09:18;;;;;;;;;;;;;;;24.52;63.00;100801.75;5016555;28;996;-46
2021/08/31 02:11:45;;;;;;;;;;;;;;;24.50;63.01;100797.53;5016465;28;1902;-46
2021/08/31 02:14:11;;;;;;;;;;;;;;;24.49;61.95;100785.88;5016438;28;1043;-47
2021/08/31 02:16:39;;;;;;;;;;;;;;;24.48;63.01;100797.69;5016399;28;1111;-46
2021/08/31 02:19:06;;;;;;;;;;;;;;;24.46;62.01;100782.66;5016321;28;1044;-47
2021/08/31 02:21:32;;;;;;;;;;;;;;;24.45;62.91;100795.31;5016073;28;1084;-46
2021/08/31 02:23:59;;;;;;;;;;;;;;;24.45;62.54;100795.31;5016255;28;1099;-47
2021/08/31 02:26:29;;;;;;;;;;;;;;;24.46;62.75;100807.81;5015949;28;1123;-46
2021/08/31 02:28:55;;;;;;;;;;;;;;;24.45;62.92;100806.13;5015942;28;1075;-47
2021/08/31 02:31:22;;;;;;;;;;;;;;;24.51;63.04;100815.44;5016132;28;1910;-47
2021/08/31 02:33:49;;;;;;;;;;;;;;;24.46;62.04;100805.13;5015834;28;1100;-47
2021/08/31 02:36:16;;;;;;;;;;;;;;;24.47;62.57;100816.78;5016015;28;1063;-46
2021/08/31 02:38:42;;;;;;;;;;;;;;;24.48;62.79;100815.78;5016037;28;1071;-46
2021/08/31 02:41:09;;;;;;;;;;;;;;;24.42;62.13;100801.91;5015672;28;1330;-47
2021/08/31 02:43:35;;;;;;;;;;;;;;;24.47;62.86;100814.94;5015571;28;1100;-47
2021/08/31 02:46:02;;;;;;;;;;;;;;;24.46;62.89;100802.41;5016117;28;1054;-47
2021/08/31 02:48:28;;;;;;;;;;;;;;;24.47;62.74;100816.78;5015919;28;1000;-47
2021/08/31 02:50:56;;;;;;;;;;;;;;;24.41;62.29;100800.25;5015738;28;1906;-47
2021/08/31 02:53:22;;;;;;;;;;;;;;;24.47;62.62;100820.34;5015680;28;1058;-47
2021/08/31 02:55:49;;;;;;;;;;;;;;;24.46;62.81;100807.81;5014853;28;1019;-47
2021/08/31 02:58:15;;;;;;;;;;;;;;;24.41;62.74;100815.59;5016067;28;1084;-47
2021/08/31 03:00:52;;;;;;;;;;;;;;;24.44;62.72;100820.66;5015702;28;1211;-46
2021/08/31 03:03:19;;;;;;;;;;;;;;;24.40;62.62;100809.34;5015485;28;1451;-46
2021/08/31 03:05:45;;;;;;;;;;;;;;;24.44;62.57;100823.38;5015328;28;1176;-46
2021/08/31 03:08:13;;;;;;;;;;;;;;;24.45;62.72;100825.03;5015186;28;1154;-47
2021/08/31 03:10:39;;;;;;;;;;;;;;;24.39;62.20;100813.09;5015377;28;1906;-47
2021/08/31 03:13:06;;;;;;;;;;;;;;;24.41;62.55;100821.00;5015376;28;1105;-46
2021/08/31 03:15:32;;;;;;;;;;;;;;;24.44;62.66;100820.66;5015064;28;1176;-47
2021/08/31 03:17:59;;;;;;;;;;;;;;;24.38;62.37;100821.34;5015000;28;1092;-47
2021/08/31 03:20:26;;;;;;;;;;;;;;;24.41;61.95;100834.50;5015188;28;1154;-46
2021/08/31 03:22:53;;;;;;;;;;;;;;;24.41;62.92;100838.06;5015221;28;1008;-47
2021/08/31 03:25:21;;;;;;;;;;;;;;;24.42;62.65;100830.81;5015304;28;1008;-46
2021/08/31 03:27:47;;;;;;;;;;;;;;;24.38;62.68;100826.75;5015097;28;1067;-46
2021/08/31 03:30:17;;;;;;;;;;;;;;;24.41;62.71;100832.66;5015090;28;1907;-47
2021/08/31 03:32:43;;;;;;;;;;;;;;;24.37;62.72;100825.06;5015027;28;1063;-47
2021/08/31 03:35:11;;;;;;;;;;;;;;;24.41;62.65;100829.97;5015369;28;1047;-46
2021/08/31 03:37:38;;;;;;;;;;;;;;;24.38;62.00;100821.34;5014933;28;992;-47
2021/08/31 03:40:05;;;;;;;;;;;;;;;24.34;62.61;100826.25;5015152;28;2066;-47
2021/08/31 03:42:32;;;;;;;;;;;;;;;24.38;62.49;100832.16;5014770;28;1112;-47
2021/08/31 03:44:59;;;;;;;;;;;;;;;24.45;62.48;100849.38;5014810;28;1064;-47
2021/08/31 03:47:25;;;;;;;;;;;;;;;24.40;62.67;100839.06;5014782;28;1015;-47
2021/08/31 03:49:52;;;;;;;;;;;;;;;24.39;62.58;100841.94;5014487;28;1099;-47
2021/08/31 03:52:18;;;;;;;;;;;;;;;24.40;62.34;100844.47;5014240;28;1961;-47
2021/08/31 03:54:45;;;;;;;;;;;;;;;24.41;62.27;100843.47;5014698;28;1075;-47
2021/08/31 03:57:11;;;;;;;;;;;;;;;24.36;61.93;100839.59;5014659;28;1090;-46
2021/08/31 03:59:39;;;;;;;;;;;;;;;24.38;62.81;100853.78;5014517;28;1096;-47
2021/08/31 04:02:05;;;;;;;;;;;;;;;24.36;62.61;100837.72;5014126;28;1265;-46
2021/08/31 04:04:32;;;;;;;;;;;;;;;24.35;62.57;100838.75;5014125;28;1056;-47
2021/08/31 04:06:58;;;;;;;;;;;;;;;24.39;62.02;100842.81;5013817;28;940;-47
2021/08/31 04:09:25;;;;;;;;;;;;;;;24.39;62.63;100844.66;5014429;28;1082;-47
2021/08/31 04:11:51;;;;;;;;;;;;;;;24.40;62.63;100851.75;5014596;28;1902;-47
2021/08/31 04:14:18;;;;;;;;;;;;;;;24.40;62.85;100857.16;5014342;28;1048;-46
2021/08/31 04:16:46;;;;;;;;;;;;;;;24.34;61.86;100841.63;5013956;28;1096;-47
2021/08/31 04:19:12;;;;;;;;;;;;;;;24.38;62.25;100848.38;5014281;28;1188;-47
2021/08/31 04:21:39;;;;;;;;;;;;;;;24.36;62.77;100848.53;5014754;28;1952;-46
2021/08/31 04:24:05;;;;;;;;;;;;;;;24.40;61.95;100857.16;5013924;28;1072;-47
2021/08/31 04:26:32;;;;;;;;;;;;;;;24.42;61.86;100853.25;5014716;28;2061;-47
2021/08/31 04:28:58;;;;;;;;;;;;;;;24.40;62.29;100857.16;5013736;28;1084;-46
2021/08/31 04:31:24;;;;;;;;;;;;;;;24.37;61.96;100846.69;5014047;28;1906;-46
2021/08/31 04:33:53;;;;;;;;;;;;;;;24.38;62.40;100848.38;5014079;28;1051;-47
2021/08/31 04:36:19;;;;;;;;;;;;;;;24.37;62.74;100861.06;5014052;28;1075;-47
2021/08/31 04:38:46;;;;;;;;;;;;;;;24.41;62.73;100865.09;5014027;28;1075;-47
2021/08/31 04:41:13;;;;;;;;;;;;;;;24.43;62.63;100867.63;5013943;28;1110;-47
2021/08/31 04:43:39;;;;;;;;;;;;;;;24.39;62.02;100860.88;5013956;28;1079;-46
2021/08/31 04:46:06;;;;;;;;;;;;;;;24.43;62.79;100873.03;5014283;28;1942;-47
2021/08/31 04:48:33;;;;;;;;;;;;;;;24.39;61.72;100866.28;5013909;28;1095;-47
2021/08/31 04:51:00;;;;;;;;;;;;;;;24.40;61.95;100867.97;5013555;28;1976;-47
2021/08/31 04:53:27;;;;;;;;;;;;;;;24.40;62.66;100867.97;5013961;28;1004;-47
2021/08/31 04:55:53;;;;;;;;;;;;;;;24.44;62.52;100880.13;5013588;28;1108;-46
2021/08/31 04:58:20;;;;;;;;;;;;;;;24.45;62.65;100871.00;5013852;28;1091;-47
2021/08/31 05:00:46;;;;;;;;;;;;;;;24.41;61.84;100875.06;5013625;28;1083;-47
2021/08/31 05:03:13;;;;;;;;;;;;;;;24.43;61.90;100873.03;5013720;28;1424;-47
2021/08/31 05:05:40;;;;;;;;;;;;;;;24.47;62.77;100873.53;5013515;28;1064;-47
2021/08/31 05:08:08;;;;;;;;;;;;;;;24.48;62.19;100881.50;5013688;28;1080;-46
2021/08/31 05:10:34;;;;;;;;;;;;;;;24.47;62.37;100873.53;5013951;28;1003;-46
2021/08/31 05:13:01;;;;;;;;;;;;;;;24.49;61.62;100877.78;5013609;28;1903;-47
2021/08/31 05:15:27;;;;;;;;;;;;;;;24.51;61.87;100867.69;5013681;28;1070;-47
2021/08/31 05:17:54;;;;;;;;;;;;;;;24.52;61.40;100877.47;5014492;28;1043;-46
2021/08/31 05:20:21;;;;;;;;;;;;;;;24.55;61.51;100881.69;5017870;28;1936;-47
2021/08/31 05:22:49;;;;;;;;;;;;;;;24.55;61.83;100879.84;5017483;28;1067;-46
2021/08/31 05:25:18;;;;;;;;;;;;;;;24.57;61.96;100880.50;5017058;28;1056;-46
2021/08/31 05:27:45;;;;;;;;;;;;;;;24.59;61.91;100883.88;5017383;28;1076;-47
2021/08/31 05:30:12;;;;;;;;;;;;;;;24.60;61.60;100890.13;5017249;28;1075;-47
2021/08/31 05:32:38;;;;;;;;;;;;;;;24.57;61.66;100883.22;5017203;28;1975;-46
2021/08/31 05:35:05;;;;;;;;;;;;;;;24.63;62.36;100883.53;5016956;28;952;-47
2021/08/31 05:37:31;;;;;;;;;;;;;;;24.63;61.45;100872.72;5017189;28;992;-47
2021/08/31 05:39:58;;;;;;;;;;;;;;;24.65;62.26;100876.97;5017190;28;1003;-47
2021/08/31 05:42:26;;;;;;;;;;;;;;;24.67;62.25;100876.78;5017099;28;1012;-47
2021/08/31 05:44:52;;;;;;;;;;;;;;;24.69;61.47;100874.75;5017005;28;1084;-47
2021/08/31 05:47:19;;;;;;;;;;;;;;;24.68;61.35;100862.25;5017031;28;995;-46
2021/08/31 05:49:45;;;;;;;;;;;;;;;24.72;61.39;100883.38;5016997;28;1000;-47
2021/08/31 05:52:12;;;;;;;;;;;;;;;24.73;61.28;100870.69;5016864;28;1906;-46
2021/08/31 05:54:39;;;;;;;;;;;;;;;24.72;61.71;100882.53;5016815;28;1066;-46
2021/08/31 05:57:10;;;;;;;;;;;;;;;24.73;62.08;100878.78;5016524;28;1091;-47
2021/08/31 05:59:39;;;;;;;;;;;;;;;24.77;61.70;100864.78;5016504;28;1143;-47
2021/08/31 06:02:06;;;;;;;;;;;;;;;24.77;61.79;100863.91;5016359;28;1262;-47
2021/08/31 06:04:33;;;;;;;;;;;;;;;24.81;61.14;100873.41;5016621;28;1003;-47
2021/08/31 06:06:59;;;;;;;;;;;;;;;24.83;60.85;100879.47;5016917;28;1046;-46
2021/08/31 06:09:26;;;;;;;;;;;;;;;24.85;60.84;100871.16;5016645;28;1000;-47
2021/08/31 06:11:53;;;;;;;;;;;;;;;24.88;61.83;100884.38;5016151;28;1973;-47
2021/08/31 06:14:19;;;;;;;;;;;;;;;24.86;60.96;100862.88;5016530;28;1070;-46
2021/08/31 06:16:47;;;;;;;;;;;;;;;24.87;61.68;100878.13;5016666;28;1074;-47
2021/08/31 06:19:14;;;;;;;;;;;;;;;24.88;60.87;100868.97;5016479;28;1019;-47
2021/08/31 06:21:40;;;;;;;;;;;;;;;24.90;61.52;100872.34;5016386;28;1115;-47
2021/08/31 06:24:07;;;;;;;;;;;;;;;24.86;60.76;100868.28;5016263;28;1091;-47
2021/08/31 06:26:33;;;;;;;;;;;;;;;24.89;61.58;100873.38;5015986;28;1280;-47
2021/08/31 06:29:00;;;;;;;;;;;;;;;24.92;61.45;100872.19;5015915;28;1087;-47
2021/08/31 06:31:26;;;;;;;;;;;;;;;24.89;60.94;100867.97;5016149;28;1907;-46
2021/08/31 06:33:54;;;;;;;;;;;;;;;24.90;61.04;100864.22;5016165;28;1004;-47
2021/08/31 06:36:20;;;;;;;;;;;;;;;24.91;60.80;100874.06;5016330;28;995;-46
2021/08/31 06:38:47;;;;;;;;;;;;;;;24.93;60.74;100874.72;5016061;28;1001;-46
2021/08/31 06:41:13;;;;;;;;;;;;;;;24.94;61.06;100880.97;5015697;28;1096;-46
2021/08/31 06:43:41;;;;;;;;;;;;;;;24.91;61.69;100876.75;5015989;28;1007;-46
2021/08/31 06:46:20;;;;;;;;;;;;;;;24.92;61.24;100870.31;5015964;28;1083;-47
2021/08/31 06:48:47;;;;;;;;;;;;;;;24.94;60.94;100886.38;5015605;28;1124;-46
2021/08/31 06:51:15;;;;;;;;;;;;;;;24.92;61.58;100877.59;5015504;28;1077;-47
2021/08/31 06:53:42;;;;;;;;;;;;;;;24.95;61.50;100882.66;5015291;28;2181;-47
2021/08/31 06:56:09;;;;;;;;;;;;;;;24.92;61.01;100867.59;5015734;28;1004;-46
2021/08/31 06:58:36;;;;;;;;;;;;;;;24.95;61.82;100883.50;5015692;28;1075;-46
2021/08/31 07:04:14;;;;;;;;;;;;;;;24.92;61.38;100878.44;5011765;28;1094;-47
2021/08/31 07:06:42;;;;;;;;;;;;;;;24.95;61.86;100888.91;5015345;28;1215;-47
2021/08/31 07:09:09;;;;;;;;;;;;;;;24.93;61.85;100881.97;5015454;28;1104;-47
2021/08/31 07:11:35;;;;;;;;;;;;;;;24.93;60.99;100882.84;5015088;28;1972;-46
2021/08/31 07:14:02;;;;;;;;;;;;;;;24.89;61.15;100876.09;5015337;28;1143;-46
2021/08/31 07:16:28;;;;;;;;;;;;;;;24.95;61.16;100888.91;5015348;28;1059;-47
2021/08/31 07:18:55;;;;;;;;;;;;;;;24.93;61.60;100874.72;5014982;28;1159;-46
2021/08/31 07:21:21;;;;;;;;;;;;;;;24.92;60.91;100875.72;5015255;28;1058;-46
2021/08/31 07:23:49;;;;;;;;;;;;;;;24.90;61.66;100880.47;5015178;28;1000;-47
2021/08/31 07:26:16;;;;;;;;;;;;;;;24.94;61.61;100892.63;5014859;28;1515;-46
2021/08/31 07:28:42;;;;;;;;;;;;;;;24.94;62.00;100887.22;5015056;28;1008;-47
2021/08/31 07:31:09;;;;;;;;;;;;;;;24.92;61.08;100877.59;5014798;28;1076;-46
2021/08/31 07:33:35;;;;;;;;;;;;;;;24.92;61.42;100880.28;5014970;28;1906;-46
2021/08/31 07:36:02;;;;;;;;;;;;;;;24.96;61.55;100893.28;5014674;28;1156;-46
2021/08/31 07:38:28;;;;;;;;;;;;;;;24.93;61.44;100888.25;5014679;28;1071;-46
2021/08/31 07:40:56;;;;;;;;;;;;;;;24.92;61.85;100894.66;5014487;28;1000;-47
2021/08/31 07:43:24;;;;;;;;;;;;;;;24.95;61.93;100886.22;5014588;28;1202;-46
2021/08/31 07:45:51;;;;;;;;;;;;;;;24.93;60.98;100858.50;5014777;28;1148;-46
2021/08/31 07:48:17;;;;;;;;;;;;;;;24.95;61.83;100878.09;5014823;28;1047;-47
2021/08/31 07:50:44;;;;;;;;;;;;;;;24.99;61.81;100887.56;5014741;28;1083;-46
2021/08/31 07:53:10;;;;;;;;;;;;;;;24.95;61.04;100856.47;5014770;28;1977;-47
2021/08/31 07:55:37;;;;;;;;;;;;;;;24.95;61.71;100861.88;5014380;28;1100;-46
2021/08/31 07:58:04;;;;;;;;;;;;;;;24.97;62.09;100865.25;5014858;28;999;-47
2021/08/31 08:00:31;;;;;;;;;;;;;;;24.95;61.65;100845.63;5014282;28;1155;-47
2021/08/31 08:02:57;;;;;;;;;;;;;;;25.00;61.38;100856.75;5013991;28;1393;-47
2021/08/31 08:05:24;;;;;;;;;;;;;;;24.96;61.15;100846.47;5014396;28;1003;-47
2021/08/31 08:07:50;;;;;;;;;;;;;;;24.95;60.97;100845.63;5014131;28;1171;-47
2021/08/31 08:10:17;;;;;;;;;;;;;;;24.98;61.09;100847.13;5014465;28;1040;-47
2021/08/31 08:12:43;;;;;;;;;;;;;;;25.02;61.84;100852.03;5014300;28;1973;-47
2021/08/31 08:15:12;;;;;;;;;;;;;;;25.02;61.86;100856.59;5014063;28;1301;-46
2021/08/31 08:17:38;;;;;;;;;;;;;;;25.01;61.84;100847.66;5013963;28;1137;-46
2021/08/31 08:20:07;;;;;;;;;;;;;;;24.99;60.95;100835.31;5014303;28;1086;-47
2021/08/31 08:22:34;;;;;;;;;;;;;;;24.99;61.52;100838.84;5013950;28;1135;-46
2021/08/31 08:25:00;;;;;;;;;;;;;;;24.98;61.54;100829.03;5014197;28;1087;-46
2021/08/31 08:27:27;;;;;;;;;;;;;;;25.02;61.47;100840.38;5014182;28;1000;-46
2021/08/31 08:29:53;;;;;;;;;;;;;;;24.98;61.33;100839.84;5013915;28;1147;-47
2021/08/31 08:32:21;;;;;;;;;;;;;;;24.96;62.07;100833.78;5014071;28;1971;-46
2021/08/31 08:34:48;;;;;;;;;;;;;;;25.00;61.55;100845.94;5014397;28;1078;-47
2021/08/31 08:37:14;;;;;;;;;;;;;;;24.95;62.04;100832.09;5014060;28;1008;-46
2021/08/31 08:39:41;;;;;;;;;;;;;;;24.99;61.83;100838.03;5014037;28;996;-46
2021/08/31 08:42:08;;;;;;;;;;;;;;;24.96;61.95;100839.19;5013591;28;1170;-47
2021/08/31 08:44:35;;;;;;;;;;;;;;;24.97;61.81;100838.19;5013930;28;1068;-46
2021/08/31 08:47:02;;;;;;;;;;;;;;;24.96;62.04;100852.72;5013965;28;1059;-46
2021/08/31 08:49:30;;;;;;;;;;;;;;;24.97;61.37;100827.38;5014172;28;1090;-46
2021/08/31 08:51:58;;;;;;;;;;;;;;;24.97;61.64;100832.78;5014829;28;1913;-47
2021/08/31 08:54:24;;;;;;;;;;;;;;;25.00;61.95;100831.56;5017911;28;1071;-47
2021/08/31 08:56:51;;;;;;;;;;;;;;;25.00;61.16;100828.88;5017976;28;1039;-47
2021/08/31 08:59:18;;;;;;;;;;;;;;;25.03;61.60;100836.66;5017938;28;1076;-47
2021/08/31 09:01:47;;;;;;;;;;;;;;;25.01;62.00;100827.88;5017738;28;1427;-47
2021/08/31 09:04:14;;;;;;;;;;;;;;;24.98;61.69;100806.56;5018418;28;1348;-46
2021/08/31 09:06:42;;;;;;;;;;;;;;;25.02;61.32;100827.66;5017742;28;1086;-47
2021/08/31 09:09:09;;;;;;;;;;;;;;;24.98;61.47;100811.97;5017786;28;996;-46
2021/08/31 09:11:37;;;;;;;;;;;;;;;24.98;61.67;100822.78;5017790;28;1078;-46
2021/08/31 09:14:21;;;;;;;;;;;;;;;25.00;61.38;100816.19;5017319;28;1976;-46
2021/08/31 09:16:48;;;;;;;;;;;;;;;25.02;61.07;100826.84;5017520;28;1159;-47
2021/08/31 09:19:15;;;;;;;;;;;;;;;25.06;61.85;100830.03;5018055;28;1012;-47
2021/08/31 09:21:45;;;;;;;;;;;;;;;24.99;61.45;100814.50;5017242;28;1064;-46
2021/08/31 09:24:12;;;;;;;;;;;;;;;25.00;61.05;100816.19;5017052;28;1061;-47
2021/08/31 09:26:39;;;;;;;;;;;;;;;25.04;61.54;100826.66;5017482;28;1008;-46
2021/08/31 09:29:12;;;;;;;;;;;;;;;25.00;61.93;100815.34;5017354;28;1027;-46
2021/08/31 09:31:53;;;;;;;;;;;;;;;25.00;61.10;100797.25;5017971;28;1071;-46
2021/08/31 09:34:33;;;;;;;;;;;;;;;25.01;61.04;100807.06;5017279;28;2028;-46
2021/08/31 09:37:14;;;;;;;;;;;;;;;25.05;61.30;100806.69;5017267;28;1077;-46
2021/08/31 09:39:42;;;;;;;;;;;;;;;25.03;61.47;100790.66;5016073;28;2456;-47
2021/08/31 09:42:09;;;;;;;;;;;;;;;25.00;61.06;100789.13;5016766;28;1002;-47
2021/08/31 09:44:35;;;;;;;;;;;;;;;25.04;62.00;100805.03;5017146;28;1063;-46
2021/08/31 09:47:02;;;;;;;;;;;;;;;25.04;61.56;100775.25;5016741;28;1100;-46
2021/08/31 09:49:29;;;;;;;;;;;;;;;25.07;61.61;100788.41;5016723;28;1167;-46
2021/08/31 09:52:00;;;;;;;;;;;;;;;25.05;61.76;100779.63;5016673;28;1194;-47
2021/08/31 09:54:26;;;;;;;;;;;;;;;25.02;61.40;100781.69;5016831;28;1883;-46
2021/08/31 09:56:54;;;;;;;;;;;;;;;25.09;61.56;100792.66;5016842;28;1048;-46
2021/08/31 09:59:22;;;;;;;;;;;;;;;25.06;61.88;100773.22;5016832;28;1046;-46
2021/08/31 10:01:52;;;;;;;;;;;;;;;25.08;61.80;100784.72;5016682;28;1483;-47
2021/08/31 10:04:19;;;;;;;;;;;;;;;25.06;61.59;100765.09;5015704;28;1105;-46
2021/08/31 10:06:45;;;;;;;;;;;;;;;25.09;61.73;100770.16;5016622;28;1072;-46
2021/08/31 10:09:12;;;;;;;;;;;;;;;25.07;61.76;100762.22;5016349;28;1096;-47
2021/08/31 10:11:39;;;;;;;;;;;;;;;25.07;61.39;100764.94;5016601;28;1000;-46
2021/08/31 10:14:07;;;;;;;;;;;;;;;25.06;61.16;100760.53;5016503;28;1906;-46
2021/08/31 10:16:34;;;;;;;;;;;;;;;25.09;61.10;100767.44;5016751;28;1286;-46
2021/08/31 10:19:01;;;;;;;;;;;;;;;25.09;61.07;100775.56;5016058;28;1077;-47
2021/08/31 10:21:28;;;;;;;;;;;;;;;25.09;61.32;100759.31;5016677;28;1056;-47
2021/08/31 10:23:55;;;;;;;;;;;;;;;25.09;61.68;100762.03;5016062;28;1060;-47
2021/08/31 10:26:25;;;;;;;;;;;;;;;25.11;61.97;100755.44;5016338;28;1091;-47
2021/08/31 10:28:52;;;;;;;;;;;;;;;25.09;61.25;100759.31;5015988;28;1155;-46
2021/08/31 10:31:28;;;;;;;;;;;;;;;25.09;61.95;100756.63;5016185;28;1134;-47
2021/08/31 10:33:54;;;;;;;;;;;;;;;25.12;61.79;100753.56;5016124;28;1906;-46
2021/08/31 10:36:34;;;;;;;;;;;;;;;25.11;61.46;100760.00;5016165;28;1058;-47
2021/08/31 10:39:02;;;;;;;;;;;;;;;25.11;61.41;100746.47;5016101;28;956;-46
2021/08/31 10:41:34;;;;;;;;;;;;;;;25.10;61.83;100756.44;5015691;28;1143;-47
2021/08/31 10:44:01;;;;;;;;;;;;;;;25.08;61.83;100757.66;5016012;28;1082;-46
2021/08/31 10:46:58;;;;;;;;;;;;;;;25.14;61.81;100748.81;5015965;28;1046;-46
2021/08/31 10:49:25;;;;;;;;;;;;;;;25.11;62.16;100751.88;5015781;28;1385;-46
2021/08/31 10:52:05;;;;;;;;;;;;;;;25.11;62.03;100746.47;5015817;28;1066;-46
2021/08/31 10:54:44;;;;;;;;;;;;;;;25.10;61.90;100751.03;5015843;28;1906;-47
2021/08/31 10:57:25;;;;;;;;;;;;;;;25.15;61.94;100747.81;5015746;28;1022;-46
2021/08/31 10:59:52;;;;;;;;;;;;;;;25.11;62.01;100751.88;5014597;28;1603;-46
2021/08/31 11:02:33;;;;;;;;;;;;;;;25.11;61.52;100754.56;5015363;28;1492;-47
2021/08/31 11:05:14;;;;;;;;;;;;;;;25.13;61.31;100761.53;5015036;28;2986;-47
2021/08/31 11:07:42;;;;;;;;;;;;;;;25.11;61.93;100758.16;5014951;28;2826;-46
2021/08/31 11:10:08;;;;;;;;;;;;;;;25.10;61.37;100753.75;5015517;28;1071;-46
2021/08/31 11:12:35;;;;;;;;;;;;;;;25.13;61.84;100749.88;5015131;28;1104;-47
2021/08/31 11:15:01;;;;;;;;;;;;;;;25.10;61.50;100748.34;5014717;28;1902;-46
2021/08/31 11:17:29;;;;;;;;;;;;;;;25.08;61.50;100736.84;5014667;28;1112;-47
2021/08/31 11:20:09;;;;;;;;;;;;;;;25.13;61.56;100739.03;5015356;28;1075;-47
2021/08/31 11:22:35;;;;;;;;;;;;;;;25.13;61.64;100739.03;5015312;28;1007;-47
2021/08/31 11:25:03;;;;;;;;;;;;;;;25.14;61.63;100746.13;5014847;28;1175;-47
2021/08/31 11:27:30;;;;;;;;;;;;;;;25.13;61.02;100744.44;5015233;28;1069;-47
2021/08/31 11:29:57;;;;;;;;;;;;;;;25.13;61.99;100734.47;5014776;28;1171;-46
2021/08/31 11:32:24;;;;;;;;;;;;;;;25.12;61.53;100726.50;5015091;28;1035;-46
2021/08/31 11:35:01;;;;;;;;;;;;;;;25.14;61.33;100735.31;5014686;28;1906;-46
2021/08/31 11:37:27;;;;;;;;;;;;;;;25.14;62.08;100708.25;5015053;28;1105;-46
2021/08/31 11:39:57;;;;;;;;;;;;;;;25.11;61.31;100724.81;5014660;28;1167;-46
2021/08/31 11:42:25;;;;;;;;;;;;;;;25.14;62.05;100724.47;5014989;28;1051;-46
2021/08/31 11:44:58;;;;;;;;;;;;;;;25.12;61.99;100723.81;5014588;28;1084;-46
2021/08/31 11:47:27;;;;;;;;;;;;;;;25.10;61.83;100718.56;5014526;28;1093;-46
2021/08/31 11:49:59;;;;;;;;;;;;;;;25.14;62.01;100717.19;5014534;28;1127;-46
2021/08/31 11:52:25;;;;;;;;;;;;;;;25.10;62.03;100709.63;5015233;28;1083;-47
2021/08/31 11:54:55;;;;;;;;;;;;;;;25.14;61.59;100727.19;5014540;28;1979;-46
2021/08/31 11:57:28;;;;;;;;;;;;;;;25.15;61.97;100726.19;5014695;28;1066;-46
2021/08/31 11:59:56;;;;;;;;;;;;;;;25.10;61.94;100705.03;5014340;28;1108;-47
2021/08/31 12:02:23;;;;;;;;;;;;;;;25.10;61.35;100709.63;5014285;28;1467;-47
2021/08/31 12:05:01;;;;;;;;;;;;;;;25.15;62.10;100709.94;5014242;28;1108;-47
2021/08/31 12:07:28;;;;;;;;;;;;;;;25.12;61.63;100710.28;5014426;28;992;-46
2021/08/31 12:09:55;;;;;;;;;;;;;;;25.12;62.09;100711.13;5014433;28;1051;-47
2021/08/31 12:12:22;;;;;;;;;;;;;;;25.08;61.64;100698.13;5014116;28;1137;-46
2021/08/31 12:14:50;;;;;;;;;;;;;;;25.12;61.51;100699.47;5013999;28;1918;-47
2021/08/31 12:17:29;;;;;;;;;;;;;;;25.12;61.92;100704.88;5013989;28;1112;-47
2021/08/31 12:20:03;;;;;;;;;;;;;;;25.10;61.42;100704.19;5014073;28;1146;-46
2021/08/31 12:22:32;;;;;;;;;;;;;;;25.10;61.24;100696.09;5014271;28;1036;-46
2021/08/31 12:24:59;;;;;;;;;;;;;;;25.11;61.40;100706.75;5013929;28;1080;-46
2021/08/31 12:27:25;;;;;;;;;;;;;;;25.12;61.87;100704.88;5013923;28;1007;-46
2021/08/31 12:29:53;;;;;;;;;;;;;;;25.08;61.54;100690.00;5013790;28;1099;-47
2021/08/31 12:32:24;;;;;;;;;;;;;;;25.09;61.31;100695.25;5014134;28;1154;-47
2021/08/31 12:34:52;;;;;;;;;;;;;;;25.09;62.31;100684.44;5014025;28;1981;-47
2021/08/31 12:37:24;;;;;;;;;;;;;;;25.07;61.33;100681.06;5014081;28;1114;-46
2021/08/31 12:40:09;;;;;;;;;;;;;;;25.08;62.46;100681.91;5014061;28;1090;-46
2021/08/31 12:42:35;;;;;;;;;;;;;;;25.09;61.94;100678.16;5013603;28;1080;-47
2021/08/31 12:45:02;;;;;;;;;;;;;;;25.05;61.39;100674.97;5013983;28;1087;-47
2021/08/31 12:47:28;;;;;;;;;;;;;;;25.08;61.59;100681.91;5014649;28;992;-47
2021/08/31 12:50:06;;;;;;;;;;;;;;;25.08;62.22;100676.47;5013922;28;1099;-47
2021/08/31 12:52:34;;;;;;;;;;;;;;;25.07;62.45;100662.13;5013614;28;1100;-46
2021/08/31 12:55:13;;;;;;;;;;;;;;;25.06;61.76;100675.81;5013742;28;1906;-47